Time;durP1;ratioP1;P1;durP2;ratioP2;P2;SDS_P1;SDS_P2;PMS_P1;PMS_P2;Temp;Humidity;BMP_temperature;BMP_pressure;BME280_temperature;BME280_humidity;BME280_pressure;Samples;Min_cycle;Max_cycle;Signal;HPM_P1;HPM_P2
2024/01/23 00:00:09;;;;;;;8.63;4.15;;;;;;;-5.70;66.90;100591.63;4934833;29;20043;-69
2024/01/23 00:02:38;;;;;;;7.35;3.65;;;;;;;-5.41;66.74;100629.94;4910902;28;20043;-68
2024/01/23 00:05:06;;;;;;;7.28;3.38;;;;;;;-5.39;67.03;100648.66;4939123;29;20047;-67
2024/01/23 00:07:35;;;;;;;7.00;4.03;;;;;;;-5.57;66.83;100610.22;4952400;28;20039;-68
2024/01/23 00:10:01;;;;;;;10.20;4.07;;;;;;;-5.57;66.36;100608.56;4924693;28;20032;-70
2024/01/23 00:12:27;;;;;;;11.48;4.97;;;;;;;-5.48;66.68;100638.75;4921480;28;20040;-69
2024/01/23 00:14:54;;;;;;;7.13;3.78;;;;;;;-5.79;66.87;100584.25;4925024;28;20063;-69
2024/01/23 00:17:21;;;;;;;8.23;4.20;;;;;;;-5.63;66.85;100583.66;4951179;28;20062;-67
2024/01/23 00:19:47;;;;;;;7.57;3.83;;;;;;;-5.88;66.82;100548.13;4937260;28;20055;-68
2024/01/23 00:22:17;;;;;;;7.30;2.75;;;;;;;-5.57;66.29;100611.09;4938746;28;20084;-69
2024/01/23 00:24:58;;;;;;;9.98;4.70;;;;;;;-5.72;66.82;100588.09;4934633;28;20044;-69
2024/01/23 00:27:24;;;;;;;9.48;4.00;;;;;;;-5.50;66.55;100610.75;4936338;28;20043;-69
2024/01/23 00:29:58;;;;;;;9.00;4.38;;;;;;;-5.62;66.93;100577.81;4909101;28;20059;-69
2024/01/23 00:32:30;;;;;;;6.95;3.05;;;;;;;-5.78;66.54;100549.66;4923113;28;20047;-71
2024/01/23 00:35:00;;;;;;;8.77;3.55;;;;;;;-5.59;66.60;100561.91;4953134;28;20512;-68
2024/01/23 00:37:31;;;;;;;7.07;3.92;;;;;;;-5.75;66.17;100537.19;4950280;28;20087;-67
2024/01/23 00:39:59;;;;;;;7.18;3.78;;;;;;;-5.50;66.13;100580.31;4923825;29;20049;-69
2024/01/23 00:42:30;;;;;;;6.57;3.75;;;;;;;-5.63;66.48;100570.13;4908783;28;20067;-70
2024/01/23 00:45:06;;;;;;;8.90;3.88;;;;;;;-5.60;66.89;100562.69;4937147;28;20043;-73
2024/01/23 00:47:33;;;;;;;8.65;4.47;;;;;;;-5.73;66.35;100547.41;4954041;28;20069;-71
2024/01/23 00:50:02;;;;;;;10.18;4.38;;;;;;;-5.74;66.68;100521.19;4941150;28;20568;-69
2024/01/23 00:52:35;;;;;;;9.15;4.10;;;;;;;-5.49;66.50;100543.13;4923685;28;20047;-70
2024/01/23 00:55:07;;;;;;;8.63;4.68;;;;;;;-5.60;66.56;100524.63;4921466;28;20063;-69
2024/01/23 00:57:34;;;;;;;8.63;4.30;;;;;;;-5.44;66.24;100549.41;4919968;28;20058;-68
2024/01/23 01:00:06;;;;;;;8.80;3.58;;;;;;;-5.45;66.16;100548.53;4935155;29;20494;-70
2024/01/23 01:02:35;;;;;;;7.85;4.55;;;;;;;-5.55;66.60;100515.69;4933598;28;20048;-68
2024/01/23 01:05:04;;;;;;;8.18;3.75;;;;;;;-5.29;66.10;100547.88;4940308;29;20047;-69
2024/01/23 01:07:38;;;;;;;9.60;4.57;;;;;;;-5.59;66.10;100488.34;4953651;28;20126;-68
2024/01/23 01:10:08;;;;;;;8.73;4.70;;;;;;;-5.31;66.54;100533.34;4919578;28;20043;-69
2024/01/23 01:12:38;;;;;;;11.05;5.15;;;;;;;-5.32;66.12;100539.19;4923470;28;21824;-69
2024/01/23 01:15:11;;;;;;;9.13;3.88;;;;;;;-5.28;66.27;100541.16;4952602;28;20047;-68
2024/01/23 01:17:39;;;;;;;10.38;5.22;;;;;;;-5.38;66.18;100503.25;4953002;28;20054;-67
2024/01/23 01:20:06;;;;;;;11.52;4.30;;;;;;;-5.36;66.40;100517.81;4925447;29;20367;-68
2024/01/23 01:22:36;;;;;;;8.18;4.30;;;;;;;-5.37;66.27;100508.44;4940013;29;20043;-68
2024/01/23 01:25:03;;;;;;;11.20;4.68;;;;;;;-5.39;66.19;100501.50;4935574;28;20069;-69
2024/01/23 01:27:31;;;;;;;9.55;4.43;;;;;;;-5.23;66.36;100522.06;4957291;28;20050;-68
2024/01/23 01:30:04;;;;;;;10.32;4.57;;;;;;;-5.30;66.21;100503.00;4939733;28;20054;-67
2024/01/23 01:32:32;;;;;;;9.18;4.60;;;;;;;-5.11;66.26;100531.22;4940389;28;20062;-67
2024/01/23 01:34:58;;;;;;;8.85;3.97;;;;;;;-5.39;65.91;100471.03;4937396;28;20525;-68
2024/01/23 01:37:25;;;;;;;9.55;4.68;;;;;;;-5.18;65.94;100500.38;4955450;28;20491;-67
2024/01/23 01:39:51;;;;;;;8.02;3.67;;;;;;;-5.12;65.74;100515.13;4956717;28;20502;-66
2024/01/23 01:42:18;;;;;;;8.32;4.18;;;;;;;-5.45;65.54;100464.81;4910984;28;20106;-67
2024/01/23 01:44:47;;;;;;;13.20;4.95;;;;;;;-5.45;66.15;100441.97;4955714;28;20074;-67
2024/01/23 01:47:16;;;;;;;10.68;4.70;;;;;;;-5.07;66.34;100507.81;4933851;28;20043;-66
2024/01/23 01:49:43;;;;;;;7.65;3.78;;;;;;;-5.03;66.01;100492.00;4938192;29;20094;-65
2024/01/23 01:52:11;;;;;;;12.73;5.28;;;;;;;-5.36;66.03;100434.09;4922402;29;20110;-65
2024/01/23 01:54:42;;;;;;;9.80;4.60;;;;;;;-5.03;65.58;100490.34;4941033;28;20039;-67
2024/01/23 01:57:15;;;;;;;8.77;4.40;;;;;;;-5.05;65.66;100478.34;4956081;28;20055;-68
2024/01/23 01:59:42;;;;;;;10.05;4.07;;;;;;;-5.23;65.63;100442.47;4952072;28;20047;-66
2024/01/23 02:02:09;;;;;;;10.57;5.18;;;;;;;-4.95;65.84;100505.19;4938826;28;20145;-67
2024/01/23 02:04:35;;;;;;;9.15;4.57;;;;;;;-5.08;65.87;100467.97;4940332;28;20039;-66
2024/01/23 02:07:04;;;;;;;13.23;5.32;;;;;;;-5.37;65.94;100427.25;4955087;28;20126;-67
2024/01/23 02:09:33;;;;;;;11.18;4.95;;;;;;;-4.99;65.17;100504.13;4936002;28;20046;-66
2024/01/23 02:12:07;;;;;;;11.02;5.13;;;;;;;-4.99;65.63;100476.22;4942270;28;20043;-65
2024/01/23 02:14:35;;;;;;;8.70;4.38;;;;;;;-5.24;65.33;100435.66;4925361;29;20070;-66
2024/01/23 02:17:05;;;;;;;11.35;5.18;;;;;;;-4.85;66.01;100477.06;4937474;28;20536;-66
2024/01/23 02:19:36;;;;;;;8.48;4.57;;;;;;;-4.82;65.11;100468.78;4942111;28;20505;-67
2024/01/23 02:22:10;;;;;;;11.43;4.35;;;;;;;-4.81;65.00;100495.94;4936819;28;20038;-65
2024/01/23 02:24:37;;;;;;;9.70;5.38;;;;;;;-4.98;65.30;100483.03;4939615;28;20047;-66
2024/01/23 02:27:06;;;;;;;13.73;5.28;;;;;;;-4.97;65.39;100473.75;4954811;28;20047;-67
2024/01/23 02:29:37;;;;;;;9.45;4.60;;;;;;;-4.90;65.52;100455.59;4922642;29;20039;-65
2024/01/23 02:32:07;;;;;;;12.93;6.20;;;;;;;-4.84;65.65;100440.72;4936394;28;20039;-67
2024/01/23 02:34:34;;;;;;;9.60;4.03;;;;;;;-4.69;65.16;100478.91;4907720;28;20052;-65
2024/01/23 02:37:10;;;;;;;9.70;4.38;;;;;;;-4.79;64.78;100449.53;4936672;29;20042;-69
2024/01/23 02:39:39;;;;;;;9.27;4.57;;;;;;;-4.72;64.86;100472.00;4936896;28;20648;-66
2024/01/23 02:42:09;;;;;;;12.88;5.38;;;;;;;-4.80;65.55;100449.44;4942275;29;20078;-66
2024/01/23 02:44:35;;;;;;;10.80;4.93;;;;;;;-4.80;64.83;100485.84;4934970;28;20043;-68
2024/01/23 02:47:01;;;;;;;11.75;4.75;;;;;;;-4.82;64.88;100468.78;4939008;28;20043;-68
2024/01/23 02:49:32;;;;;;;9.77;5.00;;;;;;;-4.94;64.81;100458.72;4925026;28;20047;-69
2024/01/23 02:51:58;;;;;;;11.38;4.95;;;;;;;-5.14;64.95;100425.31;4925454;28;20043;-68
2024/01/23 02:54:25;;;;;;;12.05;5.47;;;;;;;-4.87;65.01;100466.81;4938041;28;20052;-70
2024/01/23 02:56:55;;;;;;;10.88;4.40;;;;;;;-4.96;64.56;100458.59;4938905;28;20050;-67
2024/01/23 02:59:21;;;;;;;12.10;5.25;;;;;;;-5.45;65.14;100373.47;4938900;28;20055;-67
2024/01/23 03:01:57;;;;;;;9.77;5.20;;;;;;;-5.18;64.81;100410.66;4938873;29;20047;-68
2024/01/23 03:04:25;;;;;;;15.60;5.85;;;;;;;-4.87;64.80;100446.50;4934795;28;20458;-69
2024/01/23 03:06:55;;;;;;;12.70;5.85;;;;;;;-4.89;64.92;100467.53;4943126;28;20197;-69
2024/01/23 03:09:21;;;;;;;13.70;5.30;;;;;;;-5.05;65.20;100414.88;4954983;28;20391;-71
2024/01/23 03:11:48;;;;;;;13.27;4.63;;;;;;;-5.15;64.16;100424.44;4925570;29;20039;-67
2024/01/23 03:14:14;;;;;;;10.68;5.05;;;;;;;-5.00;64.80;100456.66;4928259;28;20050;-67
2024/01/23 03:16:41;;;;;;;12.98;6.22;;;;;;;-5.03;65.17;100420.94;4940812;28;20402;-65
2024/01/23 03:19:11;;;;;;;12.07;5.53;;;;;;;-5.27;64.85;100383.06;4932571;28;20081;-67
2024/01/23 03:21:40;;;;;;;11.52;5.40;;;;;;;-5.04;64.91;100427.66;4938143;28;20042;-67
2024/01/23 03:24:06;;;;;;;11.20;5.35;;;;;;;-4.93;64.74;100425.78;4951003;28;20047;-67
2024/01/23 03:26:38;;;;;;;9.60;5.03;;;;;;;-4.85;64.78;100436.44;4940407;28;20042;-68
2024/01/23 03:29:05;;;;;;;13.07;5.55;;;;;;;-4.91;64.90;100425.91;4952165;28;20040;-67
2024/01/23 03:31:34;;;;;;;11.10;5.43;;;;;;;-4.92;64.99;100432.63;4911127;28;20046;-70
2024/01/23 03:34:05;;;;;;;11.05;5.55;;;;;;;-4.89;64.61;100431.97;4920125;28;20050;-70
2024/01/23 03:36:32;;;;;;;13.90;5.53;;;;;;;-5.10;64.80;100393.38;4926241;29;20109;-68
2024/01/23 03:38:59;;;;;;;13.80;5.93;;;;;;;-4.85;64.95;100423.72;4930321;28;20460;-66
2024/01/23 03:41:29;;;;;;;10.32;4.85;;;;;;;-5.02;65.03;100397.31;4937727;28;20406;-69
2024/01/23 03:43:57;;;;;;;14.15;6.35;;;;;;;-4.86;64.68;100417.78;4939263;28;20070;-69
2024/01/23 03:46:24;;;;;;;12.43;5.30;;;;;;;-4.90;64.35;100432.75;4937106;28;20090;-68
2024/01/23 03:48:51;;;;;;;11.23;5.20;;;;;;;-5.02;64.56;100420.16;4937619;28;20521;-67
2024/01/23 03:51:20;;;;;;;13.48;6.07;;;;;;;-5.03;64.85;100426.00;4952448;28;20039;-69
2024/01/23 03:53:49;;;;;;;15.50;6.25;;;;;;;-4.98;65.02;100424.66;4935976;28;20465;-67
2024/01/23 03:56:16;;;;;;;16.25;6.25;;;;;;;-4.91;65.07;100418.28;4940746;29;20047;-68
2024/01/23 03:58:42;;;;;;;14.10;6.10;;;;;;;-5.27;64.41;100355.13;4941080;28;20039;-69
2024/01/23 04:01:12;;;;;;;13.82;5.85;;;;;;;-4.93;65.00;100408.03;4938828;29;20047;-68
2024/01/23 04:03:41;;;;;;;13.50;5.70;;;;;;;-4.88;64.92;100431.19;4936011;28;20039;-68
2024/01/23 04:06:08;;;;;;;13.15;4.55;;;;;;;-4.86;64.85;100434.69;4923668;29;20051;-68
2024/01/23 04:08:34;;;;;;;12.40;5.40;;;;;;;-5.02;64.62;100410.00;4937762;29;20035;-69
2024/01/23 04:11:03;;;;;;;11.75;5.15;;;;;;;-5.02;64.35;100399.84;4909747;28;20240;-67
2024/01/23 04:13:33;;;;;;;13.30;5.63;;;;;;;-4.98;64.24;100429.72;4901752;28;20043;-70
2024/01/23 04:16:02;;;;;;;12.32;5.38;;;;;;;-5.07;64.77;100402.06;4932851;28;20049;-68
2024/01/23 04:18:40;;;;;;;15.50;6.28;;;;;;;-5.12;65.09;100379.72;4934443;28;20047;-67
2024/01/23 04:21:07;;;;;;;15.93;6.18;;;;;;;-5.06;65.07;100406.38;4923674;28;20360;-69
2024/01/23 04:23:33;;;;;;;15.07;6.82;;;;;;;-5.00;65.14;100391.53;4949461;28;20568;-67
2024/01/23 04:26:06;;;;;;;12.70;5.82;;;;;;;-4.97;64.91;100407.75;4934223;28;20529;-67
2024/01/23 04:28:36;;;;;;;14.52;6.80;;;;;;;-5.10;64.93;100378.16;4950147;28;20039;-69
2024/01/23 04:31:08;;;;;;;14.10;6.55;;;;;;;-5.16;65.16;100344.00;4923015;28;20035;-70
2024/01/23 04:33:40;;;;;;;13.57;6.15;;;;;;;-4.93;64.67;100377.56;4920041;28;20039;-68
2024/01/23 04:36:06;;;;;;;16.42;7.15;;;;;;;-4.87;64.84;100387.25;4936762;28;20498;-69
2024/01/23 04:38:38;;;;;;;13.00;6.15;;;;;;;-4.93;65.31;100367.41;4918596;28;20036;-68
2024/01/23 04:41:09;;;;;;;15.93;6.57;;;;;;;-4.97;64.69;100367.13;4925741;29;20043;-69
2024/01/23 04:43:36;;;;;;;14.48;6.53;;;;;;;-5.04;64.67;100343.88;4935738;28;20126;-68
2024/01/23 04:46:02;;;;;;;13.63;6.07;;;;;;;-4.99;65.34;100374.66;4935988;28;20047;-64
2024/01/23 04:48:29;;;;;;;15.25;5.85;;;;;;;-5.07;64.82;100355.50;4933564;28;20110;-68
2024/01/23 04:51:00;;;;;;;14.60;6.63;;;;;;;-5.11;64.86;100340.88;4939716;28;20058;-65
2024/01/23 04:53:32;;;;;;;15.10;6.85;;;;;;;-5.05;64.98;100346.34;4938126;28;20042;-67
2024/01/23 04:55:59;;;;;;;14.15;6.63;;;;;;;-5.01;64.97;100340.66;4924913;28;20050;-68
2024/01/23 04:58:26;;;;;;;14.25;5.75;;;;;;;-5.10;64.95;100327.41;4937055;28;20058;-66
2024/01/23 05:00:53;;;;;;;14.13;6.85;;;;;;;-5.23;64.95;100286.03;4920831;28;20106;-69
2024/01/23 05:03:21;;;;;;;16.05;6.95;;;;;;;-4.95;64.86;100338.50;4955221;28;20043;-68
2024/01/23 05:05:48;;;;;;;12.07;5.70;;;;;;;-5.16;64.66;100313.53;4953979;28;20039;-68
2024/01/23 05:08:15;;;;;;;14.40;7.00;;;;;;;-4.89;64.92;100348.19;4939009;28;20043;-68
2024/01/23 05:10:44;;;;;;;15.60;6.53;;;;;;;-4.89;65.34;100341.41;4925475;28;20043;-70
2024/01/23 05:13:16;;;;;;;15.60;6.65;;;;;;;-4.86;65.41;100353.44;4937569;28;20051;-68
2024/01/23 05:15:42;;;;;;;13.57;6.60;;;;;;;-5.09;64.77;100322.44;4939566;28;20040;-68
2024/01/23 05:18:09;;;;;;;16.92;7.30;;;;;;;-4.88;65.04;100350.78;4934787;28;20090;-67
2024/01/23 05:20:36;;;;;;;17.25;7.07;;;;;;;-4.90;64.95;100359.13;4934405;28;20044;-68
2024/01/23 05:23:09;;;;;;;15.90;6.55;;;;;;;-4.99;65.10;100339.13;4907278;28;20139;-67
2024/01/23 05:25:44;;;;;;;14.32;5.68;;;;;;;-5.17;64.95;100301.63;4939902;28;20107;-68
2024/01/23 05:28:12;;;;;;;17.83;7.40;;;;;;;-5.03;65.23;100311.78;4913074;28;20071;-68
2024/01/23 05:30:41;;;;;;;18.30;6.70;;;;;;;-4.97;65.23;100340.09;4907158;28;20090;-70
2024/01/23 05:33:07;;;;;;;16.33;7.03;;;;;;;-4.99;65.09;100344.19;4941514;28;20054;-70
2024/01/23 05:35:34;;;;;;;15.15;6.38;;;;;;;-5.02;65.48;100331.31;4939382;28;20043;-67
2024/01/23 05:38:03;;;;;;;18.48;7.00;;;;;;;-4.95;65.21;100338.50;4921886;29;20043;-69
2024/01/23 05:40:29;;;;;;;13.25;6.32;;;;;;;-5.05;64.78;100326.03;4953512;28;20581;-67
2024/01/23 05:42:59;;;;;;;14.73;6.70;;;;;;;-5.09;65.47;100317.34;4925021;28;20136;-66
2024/01/23 05:45:34;;;;;;;13.15;5.70;;;;;;;-5.03;65.72;100309.22;4941743;28;20045;-68
2024/01/23 05:48:00;;;;;;;18.23;6.93;;;;;;;-4.93;65.32;100313.22;4935181;28;20130;-66
2024/01/23 05:50:29;;;;;;;17.25;7.47;;;;;;;-5.15;65.38;100258.59;4911416;28;20047;-70
2024/01/23 05:52:58;;;;;;;17.30;7.03;;;;;;;-4.92;65.51;100320.91;4940703;28;20048;-73
2024/01/23 05:55:30;;;;;;;15.50;7.00;;;;;;;-5.15;65.24;100258.59;4925257;29;20043;-71
2024/01/23 05:57:56;;;;;;;15.35;6.47;;;;;;;-5.14;65.14;100266.28;4937888;28;20071;-72
2024/01/23 06:00:22;;;;;;;13.98;6.80;;;;;;;-5.23;65.14;100249.63;4923827;29;20111;-69
2024/01/23 06:02:48;;;;;;;14.98;7.05;;;;;;;-5.12;65.50;100266.41;4944175;28;20137;-72
2024/01/23 06:05:19;;;;;;;19.77;7.95;;;;;;;-5.39;65.38;100209.72;4926420;28;20102;-71
2024/01/23 06:07:49;;;;;;;14.95;6.03;;;;;;;-4.88;65.01;100287.31;4923842;28;20093;-70
2024/01/23 06:10:18;;;;;;;18.73;7.53;;;;;;;-4.86;65.83;100288.28;4954217;28;20035;-68
2024/01/23 06:12:45;;;;;;;20.92;8.38;;;;;;;-4.86;65.19;100290.84;4955685;28;20040;-70
2024/01/23 06:15:14;;;;;;;9.18;4.72;;;;;;;-4.85;64.78;100304.38;4926541;28;20042;-71
2024/01/23 06:17:41;;;;;;;18.50;8.15;;;;;;;-4.99;65.51;100268.88;4921562;28;20043;-71
2024/01/23 06:20:13;;;;;;;15.65;6.55;;;;;;;-4.76;65.19;100332.03;4956923;28;20051;-70
2024/01/23 06:22:42;;;;;;;16.80;7.07;;;;;;;-4.76;65.23;100306.63;4938602;28;20062;-69
2024/01/23 06:25:14;;;;;;;15.88;7.07;;;;;;;-4.70;65.61;100322.22;4923098;28;20054;-70
2024/01/23 06:27:44;;;;;;;16.88;7.50;;;;;;;-4.65;65.19;100303.06;4909523;29;20073;-72
2024/01/23 06:30:14;;;;;;;15.75;6.63;;;;;;;-4.57;65.57;100322.19;4911793;29;20589;-70
2024/01/23 06:32:42;;;;;;;19.80;7.20;;;;;;;-4.69;65.76;100313.81;4939299;29;20043;-72
2024/01/23 06:35:11;;;;;;;17.20;7.85;;;;;;;-4.60;65.37;100332.19;4936948;28;20557;-68
2024/01/23 06:37:43;;;;;;;20.85;8.02;;;;;;;-4.52;65.14;100335.19;4927831;28;20039;-67
2024/01/23 06:40:13;;;;;;;19.75;8.32;;;;;;;-4.46;65.66;100319.41;4937026;28;20047;-69
2024/01/23 06:42:39;;;;;;;18.88;7.95;;;;;;;-4.56;65.25;100306.19;4940924;29;20043;-71
2024/01/23 06:45:06;;;;;;;18.17;7.60;;;;;;;-4.42;65.58;100321.34;4952494;28;20059;-71
2024/01/23 06:47:32;;;;;;;19.80;7.95;;;;;;;-4.37;65.05;100340.31;4920418;28;20109;-71
2024/01/23 06:50:01;;;;;;;21.40;7.82;;;;;;;-4.67;65.31;100294.47;4932563;28;20408;-68
2024/01/23 06:52:30;;;;;;;17.10;7.72;;;;;;;-4.46;65.58;100319.41;4938335;28;20063;-72
2024/01/23 06:54:56;;;;;;;22.35;8.10;;;;;;;-4.38;65.11;100320.75;4953814;28;20050;-70
2024/01/23 06:57:22;;;;;;;17.17;8.45;;;;;;;-4.38;65.59;100319.09;4918378;28;20997;-69
2024/01/23 06:59:48;;;;;;;16.38;8.30;;;;;;;-4.18;64.86;100346.47;4950576;28;20043;-69
2024/01/23 07:02:15;;;;;;;17.27;7.90;;;;;;;-4.03;65.13;100362.63;4936864;28;20039;-69
2024/01/23 07:04:41;;;;;;;20.17;9.13;;;;;;;-4.05;64.87;100359.13;4953444;28;20039;-67
2024/01/23 07:07:10;;;;;;;24.52;9.25;;;;;;;-3.90;64.83;100373.53;4927550;28;20043;-64
2024/01/23 07:09:36;;;;;;;21.65;7.95;;;;;;;-4.04;65.00;100365.09;4942955;28;20517;-65
2024/01/23 07:12:06;;;;;;;23.17;8.48;;;;;;;-3.91;64.86;100377.72;4921704;28;20042;-66
2024/01/23 07:14:37;;;;;;;18.65;7.40;;;;;;;-3.89;64.61;100363.44;4939635;29;20158;-66
2024/01/23 07:17:21;;;;;;;20.90;8.43;;;;;;;-3.84;64.25;100377.31;4926979;28;20050;-67
2024/01/23 07:19:47;;;;;;;21.58;9.15;;;;;;;-3.85;64.60;100372.13;4938728;28;20047;-68
2024/01/23 07:22:16;;;;;;;21.08;8.32;;;;;;;-3.79;64.53;100362.31;4936553;28;20043;-65
2024/01/23 07:24:42;;;;;;;20.80;8.20;;;;;;;-3.90;64.78;100327.75;4957880;28;20043;-68
2024/01/23 07:27:08;;;;;;;20.08;8.98;;;;;;;-3.75;64.36;100337.94;4938556;29;20567;-67
2024/01/23 07:29:35;;;;;;;15.30;7.32;;;;;;;-3.79;64.16;100330.13;4955152;28;20050;-67
2024/01/23 07:32:18;;;;;;;19.50;8.25;;;;;;;-3.99;63.72;100302.69;4933930;28;20043;-66
2024/01/23 07:34:44;;;;;;;13.15;6.13;;;;;;;-4.21;64.05;100263.31;4924289;28;20043;-65
2024/01/23 07:37:13;;;;;;;16.75;7.72;;;;;;;-3.85;64.27;100337.41;4910943;28;20632;-65
2024/01/23 07:39:43;;;;;;;18.10;7.90;;;;;;;-4.18;64.12;100265.13;4957798;28;20067;-66
2024/01/23 07:42:21;;;;;;;18.90;8.48;;;;;;;-3.71;63.83;100343.28;4935029;28;20039;-65
2024/01/23 07:44:47;;;;;;;22.88;8.50;;;;;;;-3.74;63.96;100325.31;4943371;28;20829;-64
2024/01/23 07:47:24;;;;;;;21.48;9.15;;;;;;;-3.80;64.07;100309.69;4938972;28;20043;-64
2024/01/23 07:49:50;;;;;;;16.40;7.70;;;;;;;-3.86;63.65;100315.28;4954973;28;20071;-65
2024/01/23 07:52:22;;;;;;;19.17;8.50;;;;;;;-3.87;63.53;100316.09;4937314;29;20090;-64
2024/01/23 07:54:50;;;;;;;21.52;8.65;;;;;;;-3.86;63.45;100324.63;4940648;28;20115;-64
2024/01/23 07:57:16;;;;;;;14.70;6.93;;;;;;;-3.97;62.67;100336.72;4935761;28;20050;-65
2024/01/23 07:59:42;;;;;;;13.70;6.60;;;;;;;-3.91;63.28;100339.59;4955591;28;20050;-64
2024/01/23 08:02:08;;;;;;;22.52;9.85;;;;;;;-4.01;63.78;100311.88;4952832;28;20189;-65
2024/01/23 08:04:34;;;;;;;19.85;8.68;;;;;;;-4.20;63.51;100280.31;4936926;28;20176;-64
2024/01/23 08:07:04;;;;;;;21.23;10.05;;;;;;;-3.94;63.41;100312.31;4940984;28;20082;-65
2024/01/23 08:09:35;;;;;;;19.90;8.45;;;;;;;-3.72;63.91;100325.38;4952707;28;20043;-66
2024/01/23 08:12:02;;;;;;;18.55;8.38;;;;;;;-3.98;63.06;100264.63;4938716;28;20047;-66
2024/01/23 08:14:39;;;;;;;20.60;8.98;;;;;;;-3.62;63.41;100327.66;4937409;28;20047;-64
2024/01/23 08:17:05;;;;;;;21.23;8.93;;;;;;;-3.57;63.66;100327.91;4937212;28;20047;-67
2024/01/23 08:19:35;;;;;;;19.40;7.82;;;;;;;-3.50;63.12;100337.66;4921208;29;20057;-66
2024/01/23 08:22:19;;;;;;;19.52;8.40;;;;;;;-3.38;63.81;100350.19;4938260;28;20046;-68
2024/01/23 08:24:51;;;;;;;17.92;8.05;;;;;;;-3.50;63.50;100325.78;4940069;28;20047;-63
2024/01/23 08:27:18;;;;;;;19.25;8.95;;;;;;;-3.49;63.05;100319.91;4956000;28;20114;-65
2024/01/23 08:29:50;;;;;;;22.40;8.98;;;;;;;-3.22;63.28;100354.47;4926824;29;20051;-67
2024/01/23 08:32:32;;;;;;;20.13;8.63;;;;;;;-3.38;62.99;100340.03;4960066;28;20498;-67
2024/01/23 08:35:01;;;;;;;17.50;8.20;;;;;;;-3.25;62.64;100377.22;4942534;28;20071;-66
2024/01/23 08:37:33;;;;;;;21.55;9.10;;;;;;;-3.33;62.83;100364.94;4942233;28;20119;-66
2024/01/23 08:39:59;;;;;;;21.45;8.77;;;;;;;-3.39;63.01;100364.56;4943131;28;20406;-66
2024/01/23 08:42:25;;;;;;;20.02;8.80;;;;;;;-3.37;63.17;100349.41;4941772;29;20047;-64
2024/01/23 08:44:55;;;;;;;18.05;8.52;;;;;;;-3.28;62.68;100351.59;4944747;28;20054;-66
2024/01/23 08:47:21;;;;;;;18.80;8.05;;;;;;;-3.18;63.36;100329.28;4945841;29;20038;-67
2024/01/23 08:49:48;;;;;;;17.10;7.95;;;;;;;-3.01;63.11;100348.81;4958733;28;20494;-65
2024/01/23 08:52:15;;;;;;;19.85;8.38;;;;;;;-2.95;63.00;100331.31;4943050;28;20038;-67
2024/01/23 08:54:44;;;;;;;20.60;8.98;;;;;;;-2.91;62.54;100361.25;4941101;28;20051;-65
2024/01/23 08:57:13;;;;;;;20.38;8.23;;;;;;;-3.03;62.90;100324.16;4957450;28;20430;-64
2024/01/23 08:59:45;;;;;;;19.10;8.47;;;;;;;-2.92;62.70;100336.56;4941714;29;20106;-69
2024/01/23 09:02:13;;;;;;;20.95;9.10;;;;;;;-2.82;62.81;100337.94;4926872;29;20054;-68
2024/01/23 09:04:41;;;;;;;20.75;8.73;;;;;;;-2.76;62.50;100336.59;4930804;28;20126;-63
2024/01/23 09:07:13;;;;;;;17.45;7.78;;;;;;;-3.23;62.13;100271.25;4958100;28;20052;-64
2024/01/23 09:09:39;;;;;;;19.23;8.25;;;;;;;-2.89;62.42;100327.44;4961101;28;20166;-64
2024/01/23 09:12:33;;;;;;;24.30;9.30;;;;;;;-2.84;62.73;100329.31;4944224;28;20078;-65
2024/01/23 09:15:31;;;;;;;20.73;8.82;;;;;;;-2.72;62.30;100325.78;4930516;28;20047;-63
2024/01/23 09:17:57;;;;;;;22.05;8.60;;;;;;;-2.68;62.72;100334.47;4942597;28;20050;-63
2024/01/23 09:20:41;;;;;;;19.33;8.65;;;;;;;-2.80;61.93;100326.16;4942915;28;20047;-64
2024/01/23 09:23:11;;;;;;;22.38;8.77;;;;;;;-2.92;62.17;100321.28;4945118;28;20171;-66
2024/01/23 09:25:40;;;;;;;21.00;8.93;;;;;;;-3.06;61.79;100300.16;4947767;28;20062;-66
2024/01/23 09:28:06;;;;;;;23.48;10.27;;;;;;;-2.86;62.23;100329.25;4961975;28;20437;-66
2024/01/23 09:30:32;;;;;;;17.77;7.80;;;;;;;-2.89;61.71;100316.34;4966191;28;20083;-63
2024/01/23 09:33:10;;;;;;;22.35;8.80;;;;;;;-2.90;61.88;100318.03;4950111;29;20043;-64
2024/01/23 09:35:36;;;;;;;21.55;8.80;;;;;;;-2.99;62.06;100316.66;4958953;28;20047;-70
2024/01/23 09:38:03;;;;;;;20.52;9.60;;;;;;;-3.01;62.10;100315.72;4930118;28;20557;-66
2024/01/23 09:40:32;;;;;;;17.88;8.35;;;;;;;-2.92;62.32;100316.19;4942899;29;20071;-67
2024/01/23 09:43:02;;;;;;;20.23;9.45;;;;;;;-3.00;62.24;100302.19;4930865;28;20043;-65
2024/01/23 09:45:37;;;;;;;16.50;7.80;;;;;;;-2.88;61.66;100318.09;4941953;28;20043;-64
2024/01/23 09:48:04;;;;;;;18.00;7.97;;;;;;;-2.93;62.23;100300.03;4959591;28;20566;-65
2024/01/23 09:50:36;;;;;;;22.20;8.77;;;;;;;-2.81;62.36;100324.41;4928759;28;20138;-63
2024/01/23 09:53:06;;;;;;;24.13;8.35;;;;;;;-2.95;62.38;100285.44;4946144;28;20047;-65
2024/01/23 09:55:35;;;;;;;18.30;8.88;;;;;;;-2.82;62.42;100310.81;4932256;28;20054;-65
2024/01/23 09:58:03;;;;;;;19.27;8.45;;;;;;;-2.91;61.84;100300.13;4941879;28;20321;-67
2024/01/23 10:00:30;;;;;;;16.50;8.35;;;;;;;-2.76;61.91;100326.41;4960725;28;20087;-65
2024/01/23 10:03:00;;;;;;;21.33;9.20;;;;;;;-2.91;62.16;100317.94;4937317;28;20506;-65
2024/01/23 10:05:25;;;;;;;18.73;8.55;;;;;;;-3.03;62.17;100262.13;4944526;29;20495;-66
2024/01/23 10:07:54;;;;;;;20.20;8.63;;;;;;;-2.67;62.16;100314.94;4956433;28;20102;-66
2024/01/23 10:10:25;;;;;;;19.20;7.93;;;;;;;-2.74;62.48;100291.69;4912697;28;20058;-65
2024/01/23 10:12:51;;;;;;;19.70;9.18;;;;;;;-2.83;62.33;100281.03;4943187;28;20066;-66
2024/01/23 10:15:21;;;;;;;23.83;9.80;;;;;;;-2.81;62.01;100291.28;4960815;28;20043;-65
2024/01/23 10:17:57;;;;;;;18.88;8.43;;;;;;;-2.75;62.14;100299.25;4960054;28;20043;-65
2024/01/23 10:20:23;;;;;;;22.50;9.52;;;;;;;-2.96;62.83;100253.13;4945254;28;20039;-67
2024/01/23 10:22:48;;;;;;;17.95;8.32;;;;;;;-2.55;62.86;100302.88;4963161;28;20070;-66
2024/01/23 10:25:19;;;;;;;20.20;9.02;;;;;;;-2.53;62.28;100291.06;4957327;28;20158;-69
2024/01/23 10:28:08;;;;;;;18.92;8.68;;;;;;;-2.58;62.01;100288.28;4946005;28;20136;-67
2024/01/23 10:30:39;;;;;;;16.08;8.18;;;;;;;-2.63;62.23;100253.16;4929069;28;20513;-66
2024/01/23 10:33:06;;;;;;;21.17;8.60;;;;;;;-2.84;62.24;100223.22;4959780;28;20051;-67
2024/01/23 10:35:36;;;;;;;19.60;8.98;;;;;;;-2.59;62.16;100280.56;4959429;28;20047;-67
2024/01/23 10:38:16;;;;;;;21.15;9.05;;;;;;;-2.72;62.55;100253.56;4960020;28;20102;-65
2024/01/23 10:40:42;;;;;;;21.40;9.00;;;;;;;-2.64;62.10;100262.47;4946121;28;20074;-66
2024/01/23 10:43:12;;;;;;;18.67;8.65;;;;;;;-2.78;62.60;100249.03;4945139;28;20043;-65
2024/01/23 10:45:39;;;;;;;16.80;8.35;;;;;;;-2.61;62.73;100277.06;4938348;28;20043;-62
2024/01/23 10:48:08;;;;;;;23.88;8.45;;;;;;;-2.75;61.83;100278.88;4953860;28;20044;-65
2024/01/23 10:50:41;;;;;;;25.15;9.55;;;;;;;-2.83;62.90;100270.84;4953711;28;20393;-66
2024/01/23 10:53:12;;;;;;;20.13;8.93;;;;;;;-2.99;62.94;100255.56;4921460;28;20048;-63
2024/01/23 10:55:43;;;;;;;17.00;8.23;;;;;;;-2.75;62.93;100295.03;4941085;29;20046;-63
2024/01/23 10:58:50;;;;;;;20.38;8.63;;;;;;;-2.79;62.85;100298.22;4955363;28;20047;-65
2024/01/23 11:01:27;;;;;;;16.52;8.45;;;;;;;-2.89;62.75;100307.06;4940670;28;20519;-64
2024/01/23 11:03:53;;;;;;;25.42;8.70;;;;;;;-3.02;63.39;100279.16;4954064;28;20459;-64
2024/01/23 11:06:26;;;;;;;19.30;8.63;;;;;;;-3.00;63.01;100292.84;4956231;28;20051;-64
2024/01/23 11:09:04;;;;;;;18.70;8.55;;;;;;;-2.91;63.41;100307.75;4955174;28;20126;-64
2024/01/23 11:11:39;;;;;;;19.70;9.15;;;;;;;-2.92;63.36;100295.81;4922120;28;20047;-64
2024/01/23 11:14:12;;;;;;;18.48;7.88;;;;;;;-3.03;63.18;100279.94;4938667;28;20529;-63
2024/01/23 11:17:06;;;;;;;17.95;7.97;;;;;;;-2.98;63.38;100296.38;4954982;28;20050;-63
2024/01/23 11:20:06;;;;;;;25.15;8.80;;;;;;;-2.98;63.40;100303.16;4955037;28;20490;-64
2024/01/23 11:22:33;;;;;;;22.00;9.57;;;;;;;-3.13;63.50;100286.22;4937427;28;20111;-65
2024/01/23 11:24:58;;;;;;;25.30;9.93;;;;;;;-3.07;63.09;100308.59;4958100;28;20046;-64
2024/01/23 11:27:35;;;;;;;19.75;8.95;;;;;;;-2.98;63.61;100323.53;4942452;28;20039;-64
2024/01/23 11:30:06;;;;;;;18.38;8.65;;;;;;;-3.11;63.62;100289.72;4922945;28;20054;-66